Flight Track Log - Related Links

Times and Time Zones

All times are in EDT time to prevent confusion due to time zone crossing. See the GGN7321 flight status page for this flight to view local times or setup timezone preferences in your user account.

Time Position Orientation Groundspeed Altitude Reporting Facility
EDT Latitude Longitude Course Direction KTS MPH feet Rate Location/Type
Mon 09:19:28 PM 44.8667 -63.5000 19° North 120 138 900  Level Moncton Center
Mon 09:20:28 PM 44.9000 -63.4833 20° North 140 161 2,800 1,700 Climbing Moncton Center
Mon 09:21:28 PM 44.9333 -63.5000 341° North 160 184 4,300 1,700 Climbing Moncton Center
Mon 09:22:28 PM 44.9667 -63.5500 313° West 180 207 6,200 1,750 Climbing Moncton Center
Mon 09:23:28 PM 45.0167 -63.6000 325° Northwest 180 207 7,800 1,650 Climbing Moncton Center
Mon 09:24:28 PM 45.0500 -63.6167 341° North 180 207 9,500 1,650 Climbing Moncton Center
Mon 09:25:28 PM 45.1000 -63.6667 325° Northwest 190 219 11,100 1,300 Climbing Moncton Center
Mon 09:26:28 PM 45.1500 -63.6833 347° North 190 219 12,100 500 Climbing Moncton Center
Mon 09:27:28 PM 45.2000 -63.7333 325° Northwest 220 253 12,100  Level Moncton Center
Mon 09:28:28 PM 45.2500 -63.7833 325° Northwest 230 265 12,100  Level Moncton Center
Mon 09:29:28 PM 45.3167 -63.8333 332° Northwest 230 265 12,100  Level Moncton Center
Mon 09:30:28 PM 45.3667 -63.8667 335° Northwest 240 276 12,100  Level Moncton Center
Mon 09:31:28 PM 45.4333 -63.9167 332° Northwest 240 276 12,100 -50 Level Moncton Center
Mon 09:32:28 PM 45.4833 -63.9667 325° Northwest 240 276 12,000 -50 Descending Moncton Center
Mon 09:33:28 PM 45.5333 -64.0167 325° Northwest 240 276 12,000  Level Moncton Center
Mon 09:34:28 PM 45.6000 -64.0833 325° Northwest 240 276 12,000 -50 Level Moncton Center
Mon 09:35:28 PM 45.6500 -64.1333 325° Northwest 240 276 11,900 -250 Descending Moncton Center
Mon 09:36:28 PM 45.7167 -64.1833 332° Northwest 240 276 11,500 -700 Descending Moncton Center
Mon 09:37:28 PM 45.7833 -64.2333 332° Northwest 260 299 10,500 -1,150 Descending Moncton Center
Mon 09:38:28 PM 45.8333 -64.3000 317° Northwest 260 299 9,200 -1,350 Descending Moncton Center
Mon 09:39:28 PM 45.9000 -64.3500 332° Northwest 260 299 7,800 -1,400 Descending Moncton Center
Mon 09:40:28 PM 45.9500 -64.4167 317° Northwest 260 299 6,400 -1,800 Descending Moncton Center
Mon 09:41:28 PM 46.0000 -64.4667 325° Northwest 220 253 4,200 -1,800 Descending Moncton Center
Mon 09:42:28 PM 46.0500 -64.5167 325° Northwest 190 219 2,800 -1,250 Descending Moncton Center
Mon 09:43:28 PM 46.0833 -64.5500 325° Northwest 170 196 1,700 -850 Descending Moncton Center
Mon 09:44:28 PM 46.1000 -64.5833 306° West 140 161 1,100 -650 Descending Moncton Center
Mon 09:45:28 PM 46.1000 -64.6333 270° West 120 138 400 -700 Descending Moncton Center

Login

Don't have an account? Register now (free) for customized features, flight alerts, and more!